sensor_id;sensor_type;location;lat;lon;timestamp;P1;P2;P0
30713;PMS7003;17465;47.934;33.430;2023-06-22T00:00:38;51.00;42.00;26.75
30713;PMS7003;17465;47.934;33.430;2023-06-22T00:03:08;50.75;40.75;25.75
30713;PMS7003;17465;47.934;33.430;2023-06-22T00:05:39;38.20;31.60;20.20
30713;PMS7003;17465;47.934;33.430;2023-06-22T00:08:09;38.75;34.50;22.00
30713;PMS7003;17465;47.934;33.430;2023-06-22T00:10:40;40.40;34.00;21.20
30713;PMS7003;17465;47.934;33.430;2023-06-22T00:13:11;36.80;31.20;21.00
30713;PMS7003;17465;47.934;33.430;2023-06-22T00:15:42;31.00;30.00;19.60
30713;PMS7003;17465;47.934;33.430;2023-06-22T00:18:13;29.00;27.00;15.40
30713;PMS7003;17465;47.934;33.430;2023-06-22T00:20:44;30.00;29.00;19.00
30713;PMS7003;17465;47.934;33.430;2023-06-22T00:23:14;30.00;28.00;19.00
30713;PMS7003;17465;47.934;33.430;2023-06-22T00:25:44;33.60;30.40;19.60
30713;PMS7003;17465;47.934;33.430;2023-06-22T00:28:14;30.25;28.75;19.00
30713;PMS7003;17465;47.934;33.430;2023-06-22T00:30:45;32.40;30.20;19.00
30713;PMS7003;17465;47.934;33.430;2023-06-22T00:33:16;29.60;28.80;19.80
30713;PMS7003;17465;47.934;33.430;2023-06-22T00:35:47;37.40;31.00;19.60
30713;PMS7003;17465;47.934;33.430;2023-06-22T00:38:17;31.00;30.00;19.20
30713;PMS7003;17465;47.934;33.430;2023-06-22T00:40:48;31.80;29.60;19.40
30713;PMS7003;17465;47.934;33.430;2023-06-22T00:43:18;24.40;24.40;17.80
30713;PMS7003;17465;47.934;33.430;2023-06-22T00:45:49;36.60;30.80;19.80
30713;PMS7003;17465;47.934;33.430;2023-06-22T00:48:20;31.60;29.80;19.80
30713;PMS7003;17465;47.934;33.430;2023-06-22T00:50:51;23.80;23.00;16.80
30713;PMS7003;17465;47.934;33.430;2023-06-22T00:53:21;33.20;29.00;19.00
30713;PMS7003;17465;47.934;33.430;2023-06-22T00:55:52;34.00;30.60;19.00
30713;PMS7003;17465;47.934;33.430;2023-06-22T00:58:22;31.00;28.60;17.40
30713;PMS7003;17465;47.934;33.430;2023-06-22T01:00:52;34.60;31.40;19.00
30713;PMS7003;17465;47.934;33.430;2023-06-22T01:03:23;34.00;30.40;20.00
30713;PMS7003;17465;47.934;33.430;2023-06-22T01:05:54;36.80;32.20;21.20
30713;PMS7003;17465;47.934;33.430;2023-06-22T01:08:31;39.80;34.00;21.00
30713;PMS7003;17465;47.934;33.430;2023-06-22T01:13:45;36.40;31.60;20.80
30713;PMS7003;17465;47.934;33.430;2023-06-22T01:16:24;33.00;30.80;20.80
30713;PMS7003;17465;47.934;33.430;2023-06-22T01:19:16;35.60;31.80;19.40
30713;PMS7003;17465;47.934;33.430;2023-06-22T01:21:46;38.80;32.20;21.00
30713;PMS7003;17465;47.934;33.430;2023-06-22T01:30:11;34.40;31.60;19.20
30713;PMS7003;17465;47.934;33.430;2023-06-22T01:32:45;33.40;29.80;19.80
30713;PMS7003;17465;47.934;33.430;2023-06-22T01:35:16;33.20;31.20;20.60
30713;PMS7003;17465;47.934;33.430;2023-06-22T01:37:49;33.00;31.00;21.00
30713;PMS7003;17465;47.934;33.430;2023-06-22T01:40:20;35.25;31.50;19.50
30713;PMS7003;17465;47.934;33.430;2023-06-22T01:42:52;31.40;30.40;19.60
30713;PMS7003;17465;47.934;33.430;2023-06-22T01:45:24;38.25;32.75;21.00
30713;PMS7003;17465;47.934;33.430;2023-06-22T01:47:55;35.50;32.25;21.25
30713;PMS7003;17465;47.934;33.430;2023-06-22T01:50:26;37.00;33.75;22.00
30713;PMS7003;17465;47.934;33.430;2023-06-22T01:52:58;35.50;32.00;21.50
30713;PMS7003;17465;47.934;33.430;2023-06-22T01:55:29;38.25;32.00;21.25
30713;PMS7003;17465;47.934;33.430;2023-06-22T01:57:59;33.50;31.50;21.00
30713;PMS7003;17465;47.934;33.430;2023-06-22T02:00:52;36.50;31.25;19.75
30713;PMS7003;17465;47.934;33.430;2023-06-22T02:03:31;35.50;31.00;19.50
30713;PMS7003;17465;47.934;33.430;2023-06-22T02:06:06;32.20;30.20;18.80
30713;PMS7003;17465;47.934;33.430;2023-06-22T02:08:48;31.40;28.40;16.40
30713;PMS7003;17465;47.934;33.430;2023-06-22T02:11:21;41.50;34.00;21.25
30713;PMS7003;17465;47.934;33.430;2023-06-22T02:13:55;36.40;31.40;21.00
30713;PMS7003;17465;47.934;33.430;2023-06-22T02:16:28;34.40;31.40;20.80
30713;PMS7003;17465;47.934;33.430;2023-06-22T02:19:01;30.20;27.60;18.00
30713;PMS7003;17465;47.934;33.430;2023-06-22T02:21:32;32.40;29.60;18.60
30713;PMS7003;17465;47.934;33.430;2023-06-22T02:24:03;34.00;30.00;19.00
30713;PMS7003;17465;47.934;33.430;2023-06-22T02:26:37;33.50;28.75;20.75
30713;PMS7003;17465;47.934;33.430;2023-06-22T02:29:06;31.40;29.00;18.60
30713;PMS7003;17465;47.934;33.430;2023-06-22T02:31:38;33.00;30.20;20.00
30713;PMS7003;17465;47.934;33.430;2023-06-22T02:34:09;32.50;29.25;18.50
30713;PMS7003;17465;47.934;33.430;2023-06-22T02:36:39;32.00;30.40;21.00
30713;PMS7003;17465;47.934;33.430;2023-06-22T02:39:10;34.00;31.00;20.40
30713;PMS7003;17465;47.934;33.430;2023-06-22T02:41:41;32.75;31.00;19.00
30713;PMS7003;17465;47.934;33.430;2023-06-22T02:44:12;33.20;30.80;20.00
30713;PMS7003;17465;47.934;33.430;2023-06-22T02:46:43;32.00;31.00;18.40
30713;PMS7003;17465;47.934;33.430;2023-06-22T02:49:17;31.20;29.00;14.20
30713;PMS7003;17465;47.934;33.430;2023-06-22T02:51:47;33.00;27.60;17.60
30713;PMS7003;17465;47.934;33.430;2023-06-22T02:54:18;31.60;30.60;18.00
30713;PMS7003;17465;47.934;33.430;2023-06-22T02:56:49;27.60;27.00;16.80
30713;PMS7003;17465;47.934;33.430;2023-06-22T02:59:20;34.80;31.40;20.60
30713;PMS7003;17465;47.934;33.430;2023-06-22T03:01:50;32.20;29.60;18.60
30713;PMS7003;17465;47.934;33.430;2023-06-22T03:04:21;32.00;30.00;19.60
30713;PMS7003;17465;47.934;33.430;2023-06-22T03:07:15;37.00;33.50;21.25
30713;PMS7003;17465;47.934;33.430;2023-06-22T03:10:26;37.75;33.50;21.00
30713;PMS7003;17465;47.934;33.430;2023-06-22T03:12:57;46.00;36.60;23.00
30713;PMS7003;17465;47.934;33.430;2023-06-22T03:15:27;35.50;31.00;19.75
30713;PMS7003;17465;47.934;33.430;2023-06-22T03:17:57;47.50;38.25;23.25
30713;PMS7003;17465;47.934;33.430;2023-06-22T03:20:30;47.50;38.75;23.00
30713;PMS7003;17465;47.934;33.430;2023-06-22T03:23:00;43.50;37.25;24.75
30713;PMS7003;17465;47.934;33.430;2023-06-22T03:25:31;43.50;36.25;22.50
30713;PMS7003;17465;47.934;33.430;2023-06-22T03:28:01;40.25;34.50;22.25
30713;PMS7003;17465;47.934;33.430;2023-06-22T03:30:39;42.75;36.50;22.00
30713;PMS7003;17465;47.934;33.430;2023-06-22T03:33:20;46.75;37.25;23.00
30713;PMS7003;17465;47.934;33.430;2023-06-22T03:35:48;39.75;31.75;19.50
30713;PMS7003;17465;47.934;33.430;2023-06-22T03:38:25;33.00;30.00;21.00
30713;PMS7003;17465;47.934;33.430;2023-06-22T03:41:12;36.40;32.60;21.80
30713;PMS7003;17465;47.934;33.430;2023-06-22T03:43:44;39.20;33.00;20.40
30713;PMS7003;17465;47.934;33.430;2023-06-22T03:46:15;39.75;33.25;19.00
30713;PMS7003;17465;47.934;33.430;2023-06-22T03:48:47;44.00;36.50;22.75
30713;PMS7003;17465;47.934;33.430;2023-06-22T03:51:17;46.75;37.75;24.50
30713;PMS7003;17465;47.934;33.430;2023-06-22T03:53:49;41.75;34.00;23.00
30713;PMS7003;17465;47.934;33.430;2023-06-22T03:56:19;43.00;36.00;24.25
30713;PMS7003;17465;47.934;33.430;2023-06-22T03:58:51;47.00;39.75;26.00
30713;PMS7003;17465;47.934;33.430;2023-06-22T04:01:21;54.50;44.75;27.25
30713;PMS7003;17465;47.934;33.430;2023-06-22T04:03:54;47.75;39.75;25.75
30713;PMS7003;17465;47.934;33.430;2023-06-22T04:06:25;53.00;43.25;26.25
30713;PMS7003;17465;47.934;33.430;2023-06-22T04:08:55;50.25;40.50;26.25
30713;PMS7003;17465;47.934;33.430;2023-06-22T04:11:25;53.25;44.00;28.50
30713;PMS7003;17465;47.934;33.430;2023-06-22T04:13:56;53.75;43.50;27.00
30713;PMS7003;17465;47.934;33.430;2023-06-22T04:16:46;50.25;40.50;25.25
30713;PMS7003;17465;47.934;33.430;2023-06-22T04:19:05;39.60;34.40;22.20
30713;PMS7003;17465;47.934;33.430;2023-06-22T04:21:36;44.80;38.00;23.80
30713;PMS7003;17465;47.934;33.430;2023-06-22T04:24:06;42.00;35.60;23.60
30713;PMS7003;17465;47.934;33.430;2023-06-22T04:26:40;36.40;31.40;18.20
30713;PMS7003;17465;47.934;33.430;2023-06-22T04:29:30;36.60;31.60;20.20
30713;PMS7003;17465;47.934;33.430;2023-06-22T04:32:16;38.80;33.00;20.20
30713;PMS7003;17465;47.934;33.430;2023-06-22T04:34:57;36.40;31.60;20.40
30713;PMS7003;17465;47.934;33.430;2023-06-22T04:37:28;37.60;33.40;21.40
30713;PMS7003;17465;47.934;33.430;2023-06-22T04:39:58;38.60;34.60;21.20
30713;PMS7003;17465;47.934;33.430;2023-06-22T04:42:29;36.20;32.40;21.40
30713;PMS7003;17465;47.934;33.430;2023-06-22T04:45:00;34.00;30.80;19.80
30713;PMS7003;17465;47.934;33.430;2023-06-22T04:47:31;39.80;33.60;22.40
30713;PMS7003;17465;47.934;33.430;2023-06-22T04:50:02;38.60;34.20;22.20
30713;PMS7003;17465;47.934;33.430;2023-06-22T04:52:36;39.00;33.60;22.20
30713;PMS7003;17465;47.934;33.430;2023-06-22T04:55:32;38.20;33.80;21.40
30713;PMS7003;17465;47.934;33.430;2023-06-22T04:58:13;37.20;32.40;20.60
30713;PMS7003;17465;47.934;33.430;2023-06-22T05:00:43;40.20;33.40;22.00
30713;PMS7003;17465;47.934;33.430;2023-06-22T05:03:13;41.00;34.80;22.00
30713;PMS7003;17465;47.934;33.430;2023-06-22T05:05:45;40.80;33.80;22.80
30713;PMS7003;17465;47.934;33.430;2023-06-22T05:08:16;38.00;33.00;23.80
30713;PMS7003;17465;47.934;33.430;2023-06-22T05:10:48;36.20;32.60;21.00
30713;PMS7003;17465;47.934;33.430;2023-06-22T05:13:20;38.60;32.20;21.00
30713;PMS7003;17465;47.934;33.430;2023-06-22T05:15:51;37.80;33.20;21.60
30713;PMS7003;17465;47.934;33.430;2023-06-22T05:18:21;38.60;33.00;21.80
30713;PMS7003;17465;47.934;33.430;2023-06-22T05:21:04;42.00;35.80;24.00
30713;PMS7003;17465;47.934;33.430;2023-06-22T05:23:48;37.80;32.60;21.20
30713;PMS7003;17465;47.934;33.430;2023-06-22T05:26:43;32.00;29.60;20.80
30713;PMS7003;17465;47.934;33.430;2023-06-22T05:29:13;34.40;29.60;20.00
30713;PMS7003;17465;47.934;33.430;2023-06-22T05:31:44;36.20;32.60;21.00
30713;PMS7003;17465;47.934;33.430;2023-06-22T05:34:28;33.80;29.40;21.20
30713;PMS7003;17465;47.934;33.430;2023-06-22T05:37:02;36.20;31.20;21.40
30713;PMS7003;17465;47.934;33.430;2023-06-22T05:39:34;37.60;32.40;22.20
30713;PMS7003;17465;47.934;33.430;2023-06-22T05:42:05;36.00;32.40;21.80
30713;PMS7003;17465;47.934;33.430;2023-06-22T05:44:38;34.20;30.80;21.40
30713;PMS7003;17465;47.934;33.430;2023-06-22T05:47:08;33.80;31.00;20.80
30713;PMS7003;17465;47.934;33.430;2023-06-22T05:49:39;33.20;29.80;21.60
30713;PMS7003;17465;47.934;33.430;2023-06-22T05:52:12;33.20;30.20;20.00
30713;PMS7003;17465;47.934;33.430;2023-06-22T05:54:43;33.00;29.00;21.00
30713;PMS7003;17465;47.934;33.430;2023-06-22T05:57:13;29.20;26.00;18.40
30713;PMS7003;17465;47.934;33.430;2023-06-22T05:59:44;32.80;29.40;20.40
30713;PMS7003;17465;47.934;33.430;2023-06-22T06:02:14;35.20;31.20;20.80
30713;PMS7003;17465;47.934;33.430;2023-06-22T06:04:46;35.20;30.80;20.80
30713;PMS7003;17465;47.934;33.430;2023-06-22T06:07:16;31.80;29.20;19.80
30713;PMS7003;17465;47.934;33.430;2023-06-22T06:09:47;30.40;27.80;19.20
30713;PMS7003;17465;47.934;33.430;2023-06-22T06:12:17;28.00;26.60;18.20
30713;PMS7003;17465;47.934;33.430;2023-06-22T06:14:53;31.80;29.00;19.60
30713;PMS7003;17465;47.934;33.430;2023-06-22T06:17:19;34.20;30.80;20.60
30713;PMS7003;17465;47.934;33.430;2023-06-22T06:19:49;32.20;29.00;20.20
30713;PMS7003;17465;47.934;33.430;2023-06-22T06:22:20;28.60;27.80;20.00
30713;PMS7003;17465;47.934;33.430;2023-06-22T06:25:07;25.60;25.00;18.20
30713;PMS7003;17465;47.934;33.430;2023-06-22T06:28:25;32.60;29.20;20.20
30713;PMS7003;17465;47.934;33.430;2023-06-22T06:30:56;27.60;27.40;19.80
30713;PMS7003;17465;47.934;33.430;2023-06-22T06:33:26;28.80;27.60;19.40
30713;PMS7003;17465;47.934;33.430;2023-06-22T06:35:57;26.00;26.00;16.80
30713;PMS7003;17465;47.934;33.430;2023-06-22T06:38:27;27.00;26.40;18.00
30713;PMS7003;17465;47.934;33.430;2023-06-22T06:41:00;27.40;26.20;18.20
30713;PMS7003;17465;47.934;33.430;2023-06-22T06:43:31;27.00;26.00;17.40
30713;PMS7003;17465;47.934;33.430;2023-06-22T06:46:44;27.00;26.00;19.00
30713;PMS7003;17465;47.934;33.430;2023-06-22T06:51:42;30.40;28.00;19.80
30713;PMS7003;17465;47.934;33.430;2023-06-22T06:54:12;29.40;26.20;19.80
30713;PMS7003;17465;47.934;33.430;2023-06-22T06:56:43;27.40;26.20;19.00
30713;PMS7003;17465;47.934;33.430;2023-06-22T06:59:18;25.80;25.60;17.80
30713;PMS7003;17465;47.934;33.430;2023-06-22T07:01:45;26.60;26.00;19.00
30713;PMS7003;17465;47.934;33.430;2023-06-22T07:04:18;28.40;25.80;18.60
30713;PMS7003;17465;47.934;33.430;2023-06-22T07:06:49;27.80;26.40;19.00
30713;PMS7003;17465;47.934;33.430;2023-06-22T07:09:23;28.40;25.40;17.20
30713;PMS7003;17465;47.934;33.430;2023-06-22T07:11:53;24.40;24.40;18.20
30713;PMS7003;17465;47.934;33.430;2023-06-22T07:14:24;26.60;25.40;17.60
30713;PMS7003;17465;47.934;33.430;2023-06-22T07:16:54;24.20;24.20;17.20
30713;PMS7003;17465;47.934;33.430;2023-06-22T07:19:27;22.20;22.20;16.40
30713;PMS7003;17465;47.934;33.430;2023-06-22T07:21:57;24.00;24.00;17.20
30713;PMS7003;17465;47.934;33.430;2023-06-22T07:24:28;21.20;21.20;14.40
30713;PMS7003;17465;47.934;33.430;2023-06-22T07:27:01;22.00;21.80;15.40
30713;PMS7003;17465;47.934;33.430;2023-06-22T07:29:36;22.60;20.20;12.80
30713;PMS7003;17465;47.934;33.430;2023-06-22T07:32:07;20.80;20.00;15.60
30713;PMS7003;17465;47.934;33.430;2023-06-22T07:34:40;17.20;16.80;13.40
30713;PMS7003;17465;47.934;33.430;2023-06-22T07:40:04;19.60;19.00;13.20
30713;PMS7003;17465;47.934;33.430;2023-06-22T07:42:41;20.40;19.40;14.80
30713;PMS7003;17465;47.934;33.430;2023-06-22T07:45:18;20.40;19.80;15.60
30713;PMS7003;17465;47.934;33.430;2023-06-22T07:47:49;20.20;19.80;14.60
30713;PMS7003;17465;47.934;33.430;2023-06-22T07:50:24;21.80;21.80;16.80
30713;PMS7003;17465;47.934;33.430;2023-06-22T07:53:07;21.00;21.00;17.00
30713;PMS7003;17465;47.934;33.430;2023-06-22T07:55:40;18.40;18.40;13.20
30713;PMS7003;17465;47.934;33.430;2023-06-22T07:58:10;20.60;19.60;13.40
30713;PMS7003;17465;47.934;33.430;2023-06-22T08:00:41;21.20;20.20;14.60
30713;PMS7003;17465;47.934;33.430;2023-06-22T08:03:18;21.00;21.00;14.40
30713;PMS7003;17465;47.934;33.430;2023-06-22T08:05:53;19.00;19.00;13.60
30713;PMS7003;17465;47.934;33.430;2023-06-22T08:08:23;19.80;19.00;13.60
30713;PMS7003;17465;47.934;33.430;2023-06-22T08:11:08;20.80;20.80;14.80
30713;PMS7003;17465;47.934;33.430;2023-06-22T08:13:53;15.80;15.40;11.60
30713;PMS7003;17465;47.934;33.430;2023-06-22T08:16:27;20.60;18.00;13.00
30713;PMS7003;17465;47.934;33.430;2023-06-22T08:22:04;19.80;19.80;15.20
30713;PMS7003;17465;47.934;33.430;2023-06-22T08:24:36;20.80;20.40;15.60
30713;PMS7003;17465;47.934;33.430;2023-06-22T08:27:07;19.00;19.00;14.60
30713;PMS7003;17465;47.934;33.430;2023-06-22T08:29:40;17.60;17.60;13.40
30713;PMS7003;17465;47.934;33.430;2023-06-22T08:32:12;19.00;18.40;13.80
30713;PMS7003;17465;47.934;33.430;2023-06-22T08:34:46;18.80;18.80;14.40
30713;PMS7003;17465;47.934;33.430;2023-06-22T08:37:16;19.40;18.40;14.80
30713;PMS7003;17465;47.934;33.430;2023-06-22T08:39:46;16.60;16.20;13.80
30713;PMS7003;17465;47.934;33.430;2023-06-22T08:42:16;16.20;16.20;12.40
30713;PMS7003;17465;47.934;33.430;2023-06-22T08:44:48;19.00;19.00;13.80
30713;PMS7003;17465;47.934;33.430;2023-06-22T08:47:22;15.20;15.20;10.40
30713;PMS7003;17465;47.934;33.430;2023-06-22T08:49:54;17.20;16.60;12.40
30713;PMS7003;17465;47.934;33.430;2023-06-22T08:52:35;18.20;18.00;12.80
30713;PMS7003;17465;47.934;33.430;2023-06-22T08:55:11;18.20;18.00;12.80
30713;PMS7003;17465;47.934;33.430;2023-06-22T08:58:09;18.00;17.20;11.80
30713;PMS7003;17465;47.934;33.430;2023-06-22T09:00:54;18.40;18.20;12.20
30713;PMS7003;17465;47.934;33.430;2023-06-22T09:03:25;17.20;17.20;12.60
30713;PMS7003;17465;47.934;33.430;2023-06-22T09:06:09;19.60;18.60;14.40
30713;PMS7003;17465;47.934;33.430;2023-06-22T09:08:45;16.60;16.60;12.40
30713;PMS7003;17465;47.934;33.430;2023-06-22T09:11:36;17.80;17.80;13.20
30713;PMS7003;17465;47.934;33.430;2023-06-22T09:14:25;17.00;17.00;11.40
30713;PMS7003;17465;47.934;33.430;2023-06-22T09:17:27;15.20;15.20;10.40
30713;PMS7003;17465;47.934;33.430;2023-06-22T09:19:54;17.80;17.00;12.20
30713;PMS7003;17465;47.934;33.430;2023-06-22T09:22:24;16.00;15.80;12.40
30713;PMS7003;17465;47.934;33.430;2023-06-22T09:24:55;17.60;17.60;13.40
30713;PMS7003;17465;47.934;33.430;2023-06-22T09:27:29;16.20;15.60;11.00
30713;PMS7003;17465;47.934;33.430;2023-06-22T09:29:59;20.60;19.40;13.40
30713;PMS7003;17465;47.934;33.430;2023-06-22T09:32:32;16.80;16.20;13.60
30713;PMS7003;17465;47.934;33.430;2023-06-22T09:35:04;20.60;19.80;13.00
30713;PMS7003;17465;47.934;33.430;2023-06-22T09:41:12;15.20;14.20;10.80
30713;PMS7003;17465;47.934;33.430;2023-06-22T09:43:43;15.20;14.80;11.40
30713;PMS7003;17465;47.934;33.430;2023-06-22T09:46:27;16.20;16.20;12.60
30713;PMS7003;17465;47.934;33.430;2023-06-22T09:51:56;15.40;15.40;11.40
30713;PMS7003;17465;47.934;33.430;2023-06-22T09:54:31;13.20;13.20;11.00
30713;PMS7003;17465;47.934;33.430;2023-06-22T09:57:06;19.20;19.20;13.20
30713;PMS7003;17465;47.934;33.430;2023-06-22T09:59:47;16.80;16.80;13.00
30713;PMS7003;17465;47.934;33.430;2023-06-22T10:02:37;16.60;16.60;11.40
30713;PMS7003;17465;47.934;33.430;2023-06-22T10:05:09;17.20;16.80;13.80
30713;PMS7003;17465;47.934;33.430;2023-06-22T10:07:45;17.80;17.60;13.20
30713;PMS7003;17465;47.934;33.430;2023-06-22T10:10:15;19.20;18.00;13.20
30713;PMS7003;17465;47.934;33.430;2023-06-22T10:12:57;17.20;16.80;13.00
30713;PMS7003;17465;47.934;33.430;2023-06-22T10:15:48;16.40;16.40;12.00
30713;PMS7003;17465;47.934;33.430;2023-06-22T10:18:18;16.40;16.40;11.80
30713;PMS7003;17465;47.934;33.430;2023-06-22T10:20:50;15.20;15.20;11.80
30713;PMS7003;17465;47.934;33.430;2023-06-22T10:23:21;17.00;16.80;11.40
30713;PMS7003;17465;47.934;33.430;2023-06-22T10:25:57;18.00;18.00;12.00
30713;PMS7003;17465;47.934;33.430;2023-06-22T10:28:27;15.80;15.80;11.40
30713;PMS7003;17465;47.934;33.430;2023-06-22T10:31:00;18.00;16.40;11.20
30713;PMS7003;17465;47.934;33.430;2023-06-22T10:33:30;16.60;16.60;12.00
30713;PMS7003;17465;47.934;33.430;2023-06-22T10:36:11;16.40;15.60;11.00
30713;PMS7003;17465;47.934;33.430;2023-06-22T10:38:44;16.20;16.20;11.40
30713;PMS7003;17465;47.934;33.430;2023-06-22T10:41:20;16.40;16.40;12.60
30713;PMS7003;17465;47.934;33.430;2023-06-22T10:43:48;16.20;16.20;13.20
30713;PMS7003;17465;47.934;33.430;2023-06-22T10:46:18;15.60;14.20;10.80
30713;PMS7003;17465;47.934;33.430;2023-06-22T10:48:53;14.60;14.60;11.60
30713;PMS7003;17465;47.934;33.430;2023-06-22T10:51:23;16.20;16.20;11.40
30713;PMS7003;17465;47.934;33.430;2023-06-22T10:53:53;17.80;17.20;13.60
30713;PMS7003;17465;47.934;33.430;2023-06-22T10:56:29;12.00;12.00;10.00
30713;PMS7003;17465;47.934;33.430;2023-06-22T10:58:56;16.60;16.60;12.60
30713;PMS7003;17465;47.934;33.430;2023-06-22T11:01:26;15.60;15.60;11.00
30713;PMS7003;17465;47.934;33.430;2023-06-22T11:04:03;14.80;13.20;9.60
30713;PMS7003;17465;47.934;33.430;2023-06-22T11:06:33;17.80;17.00;11.80
30713;PMS7003;17465;47.934;33.430;2023-06-22T11:09:15;16.20;15.20;11.00
30713;PMS7003;17465;47.934;33.430;2023-06-22T11:11:52;16.60;16.00;12.20
30713;PMS7003;17465;47.934;33.430;2023-06-22T11:17:16;15.00;15.00;11.20
30713;PMS7003;17465;47.934;33.430;2023-06-22T11:19:47;15.40;15.40;11.80
30713;PMS7003;17465;47.934;33.430;2023-06-22T11:22:20;12.00;12.00;8.60
30713;PMS7003;17465;47.934;33.430;2023-06-22T11:24:50;14.80;13.60;10.00
30713;PMS7003;17465;47.934;33.430;2023-06-22T11:32:52;16.60;16.20;13.40
30713;PMS7003;17465;47.934;33.430;2023-06-22T11:35:26;13.80;13.80;10.00
30713;PMS7003;17465;47.934;33.430;2023-06-22T11:37:56;15.60;15.60;12.40
30713;PMS7003;17465;47.934;33.430;2023-06-22T11:40:29;15.00;14.80;11.80
30713;PMS7003;17465;47.934;33.430;2023-06-22T11:43:03;13.60;13.60;9.60
30713;PMS7003;17465;47.934;33.430;2023-06-22T11:45:35;13.80;13.60;10.00
30713;PMS7003;17465;47.934;33.430;2023-06-22T11:48:14;15.40;15.40;11.00
30713;PMS7003;17465;47.934;33.430;2023-06-22T11:50:44;13.40;13.40;9.80
30713;PMS7003;17465;47.934;33.430;2023-06-22T11:53:16;11.40;11.40;9.00
30713;PMS7003;17465;47.934;33.430;2023-06-22T11:55:46;14.40;12.40;9.40
30713;PMS7003;17465;47.934;33.430;2023-06-22T11:58:30;15.60;14.40;10.80
30713;PMS7003;17465;47.934;33.430;2023-06-22T12:01:19;18.00;16.80;12.20
30713;PMS7003;17465;47.934;33.430;2023-06-22T12:03:53;15.40;15.20;10.40
30713;PMS7003;17465;47.934;33.430;2023-06-22T12:06:24;17.00;15.40;12.00
30713;PMS7003;17465;47.934;33.430;2023-06-22T12:09:05;16.00;15.20;10.60
30713;PMS7003;17465;47.934;33.430;2023-06-22T12:11:36;14.20;14.20;11.20
30713;PMS7003;17465;47.934;33.430;2023-06-22T12:14:06;16.80;16.80;12.20
30713;PMS7003;17465;47.934;33.430;2023-06-22T12:16:37;18.40;17.60;13.40
30713;PMS7003;17465;47.934;33.430;2023-06-22T12:19:10;13.60;13.20;10.80
30713;PMS7003;17465;47.934;33.430;2023-06-22T12:21:41;14.80;14.80;11.40
30713;PMS7003;17465;47.934;33.430;2023-06-22T12:24:17;12.80;12.80;9.80
30713;PMS7003;17465;47.934;33.430;2023-06-22T12:26:43;16.60;16.20;11.20
30713;PMS7003;17465;47.934;33.430;2023-06-22T12:29:17;15.60;15.60;11.40
30713;PMS7003;17465;47.934;33.430;2023-06-22T12:31:47;15.40;15.40;11.40
30713;PMS7003;17465;47.934;33.430;2023-06-22T12:34:17;14.20;14.20;10.00
30713;PMS7003;17465;47.934;33.430;2023-06-22T12:36:48;15.40;15.40;11.80
30713;PMS7003;17465;47.934;33.430;2023-06-22T12:39:22;14.80;14.80;10.00
30713;PMS7003;17465;47.934;33.430;2023-06-22T12:45:05;13.40;13.40;10.00
30713;PMS7003;17465;47.934;33.430;2023-06-22T12:47:56;13.60;13.40;10.80
30713;PMS7003;17465;47.934;33.430;2023-06-22T12:50:32;13.80;13.80;10.00
30713;PMS7003;17465;47.934;33.430;2023-06-22T12:53:36;15.40;15.40;11.20
30713;PMS7003;17465;47.934;33.430;2023-06-22T12:56:20;17.40;17.40;11.80
30713;PMS7003;17465;47.934;33.430;2023-06-22T12:59:18;16.20;16.20;11.60
30713;PMS7003;17465;47.934;33.430;2023-06-22T13:01:59;11.20;11.20;8.80
30713;PMS7003;17465;47.934;33.430;2023-06-22T13:04:36;12.60;12.60;9.60
30713;PMS7003;17465;47.934;33.430;2023-06-22T13:07:10;15.60;15.60;11.60
30713;PMS7003;17465;47.934;33.430;2023-06-22T13:09:46;15.80;15.80;10.00
30713;PMS7003;17465;47.934;33.430;2023-06-22T13:12:19;13.00;13.00;9.80
30713;PMS7003;17465;47.934;33.430;2023-06-22T13:15:08;17.80;15.20;11.80
30713;PMS7003;17465;47.934;33.430;2023-06-22T13:17:42;16.00;16.00;11.80
30713;PMS7003;17465;47.934;33.430;2023-06-22T13:20:12;12.40;12.40;10.40
30713;PMS7003;17465;47.934;33.430;2023-06-22T13:22:51;16.00;16.00;11.60
30713;PMS7003;17465;47.934;33.430;2023-06-22T13:25:18;16.00;16.00;11.20
30713;PMS7003;17465;47.934;33.430;2023-06-22T13:27:51;15.60;15.60;10.80
30713;PMS7003;17465;47.934;33.430;2023-06-22T13:30:21;14.80;14.80;11.20
30713;PMS7003;17465;47.934;33.430;2023-06-22T13:33:13;14.60;14.60;10.40
30713;PMS7003;17465;47.934;33.430;2023-06-22T13:36:12;15.00;13.60;10.00
30713;PMS7003;17465;47.934;33.430;2023-06-22T13:38:41;13.00;13.00;9.40
30713;PMS7003;17465;47.934;33.430;2023-06-22T13:41:22;7.00;7.00;4.60
30713;PMS7003;17465;47.934;33.430;2023-06-22T13:43:55;13.20;12.40;9.00
30713;PMS7003;17465;47.934;33.430;2023-06-22T13:46:28;15.00;15.00;10.80
30713;PMS7003;17465;47.934;33.430;2023-06-22T13:49:07;14.40;14.40;11.20
30713;PMS7003;17465;47.934;33.430;2023-06-22T13:51:36;14.00;14.00;10.80
30713;PMS7003;17465;47.934;33.430;2023-06-22T13:54:14;12.60;12.60;10.60
30713;PMS7003;17465;47.934;33.430;2023-06-22T13:57:18;14.40;14.40;11.60
30713;PMS7003;17465;47.934;33.430;2023-06-22T13:59:48;15.60;15.60;11.20
30713;PMS7003;17465;47.934;33.430;2023-06-22T14:02:33;13.20;13.20;8.20
30713;PMS7003;17465;47.934;33.430;2023-06-22T14:08:11;16.80;15.80;11.60
30713;PMS7003;17465;47.934;33.430;2023-06-22T14:13:54;16.40;16.40;12.80
30713;PMS7003;17465;47.934;33.430;2023-06-22T14:16:25;16.40;15.40;10.40
30713;PMS7003;17465;47.934;33.430;2023-06-22T14:18:59;13.80;13.80;10.60
30713;PMS7003;17465;47.934;33.430;2023-06-22T14:21:34;17.00;17.00;11.40
30713;PMS7003;17465;47.934;33.430;2023-06-22T14:24:04;16.80;14.80;11.20
30713;PMS7003;17465;47.934;33.430;2023-06-22T14:26:36;18.40;18.20;12.80
30713;PMS7003;17465;47.934;33.430;2023-06-22T14:29:11;16.80;16.80;10.80
30713;PMS7003;17465;47.934;33.430;2023-06-22T14:31:45;13.60;13.60;11.20
30713;PMS7003;17465;47.934;33.430;2023-06-22T14:34:18;16.20;16.20;11.00
30713;PMS7003;17465;47.934;33.430;2023-06-22T14:36:48;14.20;14.20;11.20
30713;PMS7003;17465;47.934;33.430;2023-06-22T14:42:37;17.00;16.20;11.60
30713;PMS7003;17465;47.934;33.430;2023-06-22T14:45:08;17.00;17.00;12.20
30713;PMS7003;17465;47.934;33.430;2023-06-22T14:47:53;10.00;10.00;5.60
30713;PMS7003;17465;47.934;33.430;2023-06-22T14:50:29;12.40;12.40;8.80
30713;PMS7003;17465;47.934;33.430;2023-06-22T14:53:05;17.40;16.00;12.20
30713;PMS7003;17465;47.934;33.430;2023-06-22T14:55:35;14.80;14.40;11.60
30713;PMS7003;17465;47.934;33.430;2023-06-22T14:58:11;16.40;16.20;11.20